createdAt,value
2022-08-12T00:00:24.030Z,46.24
2022-08-12T00:01:26.941Z,45.34
2022-08-12T00:02:25.010Z,46.14
2022-08-12T00:03:24.183Z,45.34
2022-08-12T00:04:23.999Z,45.31
2022-08-12T00:05:23.984Z,45.34
2022-08-12T00:06:23.971Z,45.72
2022-08-12T00:07:23.960Z,46.42
2022-08-12T00:08:28.667Z,47.22
2022-08-12T00:09:26.564Z,46.12
2022-08-12T00:10:24.954Z,46.12
2022-08-12T00:11:23.928Z,45.81
2022-08-12T00:12:23.920Z,45.81
2022-08-12T00:13:23.913Z,45.92
2022-08-12T00:14:23.914Z,45.72
2022-08-12T00:15:23.893Z,45.81
2022-08-12T00:16:23.880Z,46.12
2022-08-12T00:17:23.875Z,46.31
2022-08-12T00:18:23.862Z,46.31
2022-08-12T00:19:23.867Z,45.62
2022-08-12T00:20:23.842Z,46.12
2022-08-12T00:21:24.830Z,45.72
2022-08-12T00:22:23.823Z,45.62
2022-08-12T00:23:23.812Z,44.49
2022-08-12T00:24:23.828Z,44.42
2022-08-12T00:26:21.630Z,46.12
2022-08-12T00:26:24.772Z,46.62
2022-08-12T00:27:27.464Z,45.62
2022-08-12T00:28:25.767Z,46.12
2022-08-12T00:29:23.781Z,45.72
2022-08-12T00:30:23.744Z,45.21
2022-08-12T00:31:23.739Z,46.01
2022-08-12T00:32:35.992Z,46.12
2022-08-12T00:33:25.605Z,45.21
2022-08-12T00:34:24.766Z,46.34
2022-08-12T00:35:29.197Z,47.34
2022-08-12T00:36:32.433Z,47.04
2022-08-12T00:37:24.673Z,45.64
2022-08-12T00:38:23.662Z,45.64
2022-08-12T00:39:23.711Z,45.54
2022-08-12T00:40:23.642Z,45.74
2022-08-12T00:41:23.646Z,45.43
2022-08-12T00:42:23.623Z,45.74
2022-08-12T00:43:23.612Z,45.64
2022-08-12T00:44:23.604Z,45.84
2022-08-12T00:45:23.630Z,46.24
2022-08-12T00:46:23.586Z,46.14
2022-08-12T00:47:24.976Z,46.84
2022-08-12T00:48:23.565Z,46.64
2022-08-12T00:49:23.556Z,47.04
2022-08-12T00:50:23.562Z,47.44
2022-08-12T00:51:23.542Z,47.34
2022-08-12T00:52:23.542Z,47.46
2022-08-12T00:53:23.593Z,46.84
2022-08-12T00:54:23.503Z,46.86
2022-08-12T00:55:23.512Z,46.66
2022-08-12T00:56:23.487Z,46.96
2022-08-12T00:57:23.476Z,47.26
2022-08-12T00:58:23.467Z,46.76
2022-08-12T00:59:23.479Z,46.16
2022-08-12T01:00:23.466Z,46.26
2022-08-12T01:01:23.499Z,46.96
2022-08-12T01:02:23.471Z,46.56
2022-08-12T01:03:23.451Z,47.06
2022-08-12T01:04:23.410Z,48.26
2022-08-12T01:05:23.418Z,48.57
2022-08-12T01:06:23.426Z,47.76
2022-08-12T01:07:23.379Z,46.36
2022-08-12T01:08:23.368Z,46.26
2022-08-12T01:09:23.358Z,47.69
2022-08-12T01:10:29.676Z,48.16
2022-08-12T01:11:24.339Z,47.36
2022-08-12T01:12:23.330Z,46.16
2022-08-12T01:13:23.427Z,46.08
2022-08-12T01:14:23.319Z,46.58
2022-08-12T01:15:23.329Z,46.18
2022-08-12T01:16:23.890Z,45.96
2022-08-12T01:17:23.284Z,45.36
2022-08-12T01:18:23.271Z,45.86
2022-08-12T01:19:23.261Z,45.76
2022-08-12T01:20:23.276Z,46.26
2022-08-12T01:21:23.238Z,46.06
2022-08-12T01:22:23.228Z,46.06
2022-08-12T01:23:23.217Z,46.26
2022-08-12T01:24:30.877Z,45.66
2022-08-12T01:25:24.228Z,45.86
2022-08-12T01:26:23.186Z,46.28
2022-08-12T01:27:23.178Z,45.86
2022-08-12T01:28:23.165Z,45.16
2022-08-12T01:29:23.158Z,46.16
2022-08-12T01:30:23.149Z,45.56
2022-08-12T01:31:23.155Z,44.66
2022-08-12T01:32:23.158Z,45.98
2022-08-12T01:33:23.119Z,45.56
2022-08-12T01:34:35.409Z,45.56
2022-08-12T01:35:25.113Z,45.26
2022-08-12T01:36:23.107Z,44.88
2022-08-12T01:37:23.077Z,44.96
2022-08-12T01:38:29.942Z,45.08
2022-08-12T01:39:24.080Z,45.58
2022-08-12T01:40:36.098Z,45.48
2022-08-12T01:41:24.065Z,46.48
2022-08-12T01:42:23.033Z,44.88
2022-08-12T01:43:23.030Z,45.86
2022-08-12T01:44:23.019Z,45.68
2022-08-12T01:45:23.045Z,44.78
2022-08-12T01:46:23.032Z,45.58
2022-08-12T01:47:54.870Z,45.68
2022-08-12T01:48:22.976Z,45.58
2022-08-12T01:49:22.965Z,45.48
2022-08-12T01:50:22.956Z,45.68
2022-08-12T01:52:15.601Z,44.78
2022-08-12T01:52:23.950Z,44.98
2022-08-12T01:53:22.927Z,44.48
2022-08-12T01:54:22.915Z,44.70
2022-08-12T01:55:22.906Z,45.18
2022-08-12T01:56:22.895Z,44.98
2022-08-12T01:57:58.893Z,44.68
2022-08-12T01:58:23.870Z,46.48
2022-08-12T01:59:22.870Z,45.58
2022-08-12T02:00:43.384Z,45.68
2022-08-12T02:01:24.037Z,45.18
2022-08-12T02:02:22.868Z,45.58
2022-08-12T02:03:22.828Z,44.78
2022-08-12T02:04:22.814Z,46.08
2022-08-12T02:05:22.807Z,45.48
2022-08-12T02:06:22.798Z,46.08
2022-08-12T02:07:22.812Z,46.41
2022-08-12T02:08:22.774Z,46.98
2022-08-12T02:09:22.764Z,47.20
2022-08-12T02:10:49.153Z,46.41
2022-08-12T02:11:23.749Z,45.70
2022-08-12T02:12:27.827Z,46.00
2022-08-12T02:13:33.251Z,46.61
2022-08-12T02:14:23.715Z,46.30
2022-08-12T02:15:22.701Z,46.20
2022-08-12T02:16:23.703Z,46.38
2022-08-12T02:17:27.535Z,46.00
2022-08-12T02:18:23.697Z,46.50
2022-08-12T02:19:23.438Z,46.41
2022-08-12T02:20:22.658Z,45.70
2022-08-12T02:21:22.668Z,46.50
2022-08-12T02:22:22.631Z,46.11
2022-08-12T02:23:22.672Z,47.20
2022-08-12T02:24:22.618Z,47.00
2022-08-12T02:25:22.610Z,47.11
2022-08-12T02:26:22.600Z,46.91
2022-08-12T02:27:22.589Z,47.03
2022-08-12T02:28:22.624Z,47.11
2022-08-12T02:29:22.577Z,47.13
2022-08-12T02:30:22.579Z,47.73
2022-08-12T02:31:22.550Z,48.53
2022-08-12T02:32:22.537Z,48.43
2022-08-12T02:33:22.522Z,48.13
2022-08-12T02:34:23.539Z,49.04
2022-08-12T02:35:22.516Z,48.23
2022-08-12T02:36:22.501Z,47.23
2022-08-12T02:37:22.494Z,47.23
2022-08-12T02:38:22.478Z,48.23
2022-08-12T02:39:22.534Z,48.86
2022-08-12T02:40:22.456Z,48.35
2022-08-12T02:41:22.824Z,48.16
2022-08-12T02:42:22.449Z,48.25
2022-08-12T02:43:22.428Z,49.05
2022-08-12T02:44:22.449Z,48.35
2022-08-12T02:45:22.412Z,48.48
2022-08-12T02:46:22.399Z,48.78
2022-08-12T02:47:58.814Z,48.48
2022-08-12T02:48:23.380Z,48.58
2022-08-12T02:49:22.413Z,49.71
2022-08-12T02:50:22.362Z,48.98
2022-08-12T02:51:22.348Z,48.78
2022-08-12T02:52:22.343Z,48.50
2022-08-12T02:53:22.332Z,48.40
2022-08-12T02:54:22.321Z,48.58
2022-08-12T02:55:28.189Z,48.40
2022-08-12T02:56:23.305Z,48.70
2022-08-12T02:57:22.290Z,48.78
2022-08-12T02:58:22.283Z,48.60
2022-08-12T02:59:23.279Z,48.40
2022-08-12T03:00:22.275Z,48.40
2022-08-12T03:01:22.326Z,48.80
2022-08-12T03:02:22.240Z,48.60
2022-08-12T03:03:22.234Z,48.40
2022-08-12T03:04:22.223Z,48.30
2022-08-12T03:05:22.227Z,48.20
2022-08-12T03:06:22.207Z,47.09
2022-08-12T03:07:22.195Z,47.30
2022-08-12T03:08:32.718Z,47.39
2022-08-12T03:09:23.180Z,47.90
2022-08-12T03:10:22.225Z,47.80
2022-08-12T03:11:23.156Z,47.90
2022-08-12T03:12:22.149Z,47.90
2022-08-12T03:13:22.137Z,48.80
2022-08-12T03:14:22.132Z,48.30
2022-08-12T03:15:22.813Z,48.20
2022-08-12T03:16:22.114Z,48.43
2022-08-12T03:17:22.096Z,48.63
2022-08-12T03:18:24.228Z,49.02
2022-08-12T03:19:23.076Z,49.02
2022-08-12T03:20:26.713Z,49.33
2022-08-12T03:21:55.714Z,49.02
2022-08-12T03:22:24.045Z,49.22
2022-08-12T03:23:30.062Z,50.23
2022-08-12T03:24:23.064Z,48.63
2022-08-12T03:25:22.035Z,48.83
2022-08-12T03:26:22.026Z,48.72
2022-08-12T03:27:22.002Z,49.43
2022-08-12T03:28:23.996Z,49.02
2022-08-12T03:29:21.976Z,49.15
2022-08-12T03:30:21.981Z,49.05
2022-08-12T03:31:21.977Z,48.95
2022-08-12T03:32:35.867Z,49.25
2022-08-12T03:33:22.937Z,48.85
2022-08-12T03:34:21.933Z,48.85
2022-08-12T03:35:41.286Z,48.95
2022-08-12T03:36:22.922Z,49.35
2022-08-12T03:37:21.897Z,49.85
2022-08-12T03:38:21.891Z,48.95
2022-08-12T03:39:35.261Z,49.76
2022-08-12T03:40:22.928Z,50.05
2022-08-12T03:41:21.882Z,50.15
2022-08-12T03:42:21.851Z,49.65
2022-08-12T03:43:21.880Z,50.15
2022-08-12T03:44:21.827Z,49.55
2022-08-12T03:45:21.815Z,48.85
2022-08-12T03:46:21.824Z,49.25
2022-08-12T03:47:21.795Z,48.65
2022-08-12T03:48:21.790Z,48.95
2022-08-12T03:49:21.779Z,49.25
2022-08-12T03:50:21.765Z,49.07
2022-08-12T03:51:21.772Z,49.05
2022-08-12T03:52:21.744Z,48.95
2022-08-12T03:53:21.740Z,49.25
2022-08-12T03:54:21.731Z,49.05
2022-08-12T03:55:21.861Z,48.85
2022-08-12T03:56:21.740Z,49.55
2022-08-12T03:57:21.699Z,49.35
2022-08-12T03:58:21.692Z,48.77
2022-08-12T03:59:21.681Z,48.75
2022-08-12T04:00:24.138Z,48.75
2022-08-12T04:01:21.716Z,48.44
2022-08-12T04:02:21.648Z,48.85
2022-08-12T04:03:21.640Z,49.15
2022-08-12T04:04:21.630Z,49.05
2022-08-12T04:05:22.923Z,49.05
2022-08-12T04:06:34.497Z,49.05
2022-08-12T04:07:22.614Z,49.95
2022-08-12T04:08:21.590Z,49.65
2022-08-12T04:09:21.581Z,49.25
2022-08-12T04:10:21.574Z,50.05
2022-08-12T04:11:21.555Z,49.76
2022-08-12T04:12:21.589Z,50.15
2022-08-12T04:13:21.540Z,49.45
2022-08-12T04:14:21.531Z,49.95
2022-08-12T04:15:21.529Z,48.97
2022-08-12T04:16:21.517Z,50.26
2022-08-12T04:17:21.533Z,49.95
2022-08-12T04:18:21.498Z,49.05
2022-08-12T04:19:21.491Z,49.55
2022-08-12T04:20:21.477Z,49.05
2022-08-12T04:21:21.465Z,48.95
2022-08-12T04:22:21.460Z,50.26
2022-08-12T04:23:21.459Z,50.46
2022-08-12T04:24:21.438Z,50.46
2022-08-12T04:25:21.428Z,50.26
2022-08-12T04:26:21.418Z,49.25
2022-08-12T04:27:21.407Z,49.55
2022-08-12T04:28:21.413Z,49.13
2022-08-12T04:29:21.393Z,49.13
2022-08-12T04:30:32.913Z,49.65
2022-08-12T04:31:22.367Z,49.33
2022-08-12T04:32:21.358Z,49.25
2022-08-12T04:33:21.364Z,49.53
2022-08-12T04:34:21.337Z,49.63
2022-08-12T04:35:21.328Z,49.33
2022-08-12T04:36:21.318Z,49.53
2022-08-12T04:37:21.314Z,49.02
2022-08-12T04:38:21.311Z,49.22
2022-08-12T04:39:21.319Z,49.10
2022-08-12T04:40:27.996Z,48.80
2022-08-12T04:41:22.270Z,49.10
2022-08-12T04:42:21.261Z,48.80
2022-08-12T04:43:55.318Z,49.71
2022-08-12T04:44:22.240Z,50.73
2022-08-12T04:45:22.469Z,50.01
2022-08-12T04:46:24.649Z,51.72
2022-08-12T04:47:23.210Z,51.29
2022-08-12T04:48:21.232Z,50.21
2022-08-12T04:49:21.190Z,49.98
2022-08-12T04:50:27.240Z,51.11
2022-08-12T04:51:22.173Z,50.99
2022-08-12T04:52:21.159Z,51.19
2022-08-12T04:53:21.151Z,51.17
2022-08-12T04:54:21.147Z,50.48
2022-08-12T04:55:21.131Z,50.36
2022-08-12T04:56:21.126Z,50.16
2022-08-12T04:57:21.111Z,50.46
2022-08-12T04:58:29.280Z,49.74
2022-08-12T04:59:22.107Z,50.44
2022-08-12T05:00:21.076Z,49.93
2022-08-12T05:01:22.075Z,49.74
2022-08-12T05:02:22.917Z,50.54
2022-08-12T05:03:21.059Z,49.91
2022-08-12T05:04:21.091Z,48.81
2022-08-12T05:05:21.033Z,49.31
2022-08-12T05:06:26.729Z,49.21
2022-08-12T05:07:22.017Z,48.81
2022-08-12T05:08:21.007Z,49.21
2022-08-12T05:09:21.040Z,50.21
2022-08-12T05:10:20.988Z,50.31
2022-08-12T05:11:20.973Z,49.91
2022-08-12T05:12:20.967Z,50.01
2022-08-12T05:13:20.962Z,49.19
2022-08-12T05:14:20.946Z,48.99
2022-08-12T05:15:29.369Z,49.79
2022-08-12T05:16:23.809Z,50.46
2022-08-12T05:17:21.918Z,50.16
2022-08-12T05:18:21.910Z,50.96
2022-08-12T05:19:22.594Z,51.37
2022-08-12T05:20:20.918Z,50.37
2022-08-12T05:21:20.877Z,50.57
2022-08-12T05:22:20.870Z,50.04
2022-08-12T05:23:20.870Z,49.84
2022-08-12T05:24:20.852Z,49.94
2022-08-12T05:25:21.297Z,50.34
2022-08-12T05:26:20.832Z,50.42
2022-08-12T05:27:20.822Z,50.02
2022-08-12T05:28:20.813Z,49.32
2022-08-12T05:30:07.264Z,49.49
2022-08-12T05:30:21.831Z,48.49
2022-08-12T05:31:40.607Z,49.79
2022-08-12T05:32:22.787Z,50.70
2022-08-12T05:33:20.764Z,49.90
2022-08-12T05:34:23.838Z,48.60
2022-08-12T05:35:22.777Z,48.79
2022-08-12T05:36:20.731Z,48.39
2022-08-12T05:37:20.724Z,49.09
2022-08-12T05:38:20.712Z,49.17
2022-08-12T05:39:20.728Z,49.97
2022-08-12T05:40:20.694Z,49.59
2022-08-12T05:41:20.827Z,48.99
2022-08-12T05:42:20.670Z,48.37
2022-08-12T05:43:21.667Z,48.39
2022-08-12T05:44:20.654Z,49.47
2022-08-12T05:45:20.641Z,49.57
2022-08-12T05:46:20.647Z,50.37
2022-08-12T05:47:20.622Z,50.27
2022-08-12T05:48:20.608Z,51.09
2022-08-12T05:49:20.596Z,49.69
2022-08-12T05:50:20.595Z,49.02
2022-08-12T05:51:20.599Z,50.74
2022-08-12T05:52:20.570Z,50.14
2022-08-12T05:53:20.562Z,50.94
2022-08-12T05:54:35.332Z,51.87
2022-08-12T05:55:21.533Z,52.89
2022-08-12T05:56:21.545Z,54.12
2022-08-12T05:57:20.523Z,54.80
2022-08-12T05:58:20.512Z,55.13
2022-08-12T05:59:20.500Z,55.43
2022-08-12T06:00:20.495Z,55.40
2022-08-12T06:02:10.636Z,55.27
2022-08-12T06:02:21.480Z,55.44
2022-08-12T06:03:20.520Z,53.72
2022-08-12T06:04:20.458Z,53.27
2022-08-12T06:05:20.445Z,51.45
2022-08-12T06:06:22.355Z,50.35
2022-08-12T06:08:00.869Z,48.22
2022-08-12T06:08:21.407Z,48.52
2022-08-12T06:09:21.408Z,48.90
2022-08-12T06:10:32.219Z,48.28
2022-08-12T06:11:21.427Z,48.46
2022-08-12T06:12:20.378Z,47.93
2022-08-12T06:13:28.642Z,47.56
2022-08-12T06:14:21.358Z,47.88
2022-08-12T06:15:20.344Z,48.16
2022-08-12T06:16:20.334Z,47.81
2022-08-12T06:17:20.338Z,46.30
2022-08-12T06:18:20.321Z,45.65
2022-08-12T06:19:20.302Z,45.55
2022-08-12T06:20:27.146Z,45.36
2022-08-12T06:21:21.283Z,45.75
2022-08-12T06:22:20.343Z,46.05
2022-08-12T06:23:20.268Z,46.01
2022-08-12T06:24:20.256Z,44.59
2022-08-12T06:25:21.898Z,44.15
2022-08-12T06:26:20.235Z,43.54
2022-08-12T06:27:20.237Z,43.42
2022-08-12T06:28:20.227Z,42.92
2022-08-12T06:30:10.253Z,43.00
2022-08-12T06:30:32.068Z,41.36
2022-08-12T06:31:26.349Z,40.84
2022-08-12T06:32:21.187Z,41.14
2022-08-12T06:33:22.988Z,40.11
2022-08-12T06:35:23.273Z,39.56
2022-08-12T06:35:25.527Z,39.58
2022-08-12T06:36:21.223Z,38.85
2022-08-12T06:37:20.166Z,39.32
2022-08-12T06:38:20.111Z,38.01
2022-08-12T06:39:20.125Z,37.89
2022-08-12T06:40:20.152Z,37.89
2022-08-12T06:41:20.080Z,37.57
2022-08-12T06:42:32.741Z,38.01
2022-08-12T06:43:21.063Z,38.99
2022-08-12T06:44:20.051Z,37.69
2022-08-12T06:45:20.045Z,37.61
2022-08-12T06:46:20.041Z,38.07
2022-08-12T06:47:20.079Z,36.97
2022-08-12T06:48:20.012Z,37.36
2022-08-12T06:49:20.006Z,37.40
2022-08-12T06:50:19.998Z,39.52
2022-08-12T06:51:19.991Z,39.44
2022-08-12T06:52:19.992Z,40.13
2022-08-12T06:53:19.969Z,40.13
2022-08-12T06:54:31.075Z,39.52
2022-08-12T06:55:20.946Z,39.79
2022-08-12T06:56:19.941Z,39.47
2022-08-12T06:58:01.804Z,39.15
2022-08-12T06:58:20.924Z,38.46
2022-08-12T06:59:19.922Z,37.49
2022-08-12T07:00:19.905Z,39.01
2022-08-12T07:01:19.935Z,39.50
2022-08-12T07:02:19.928Z,39.17
2022-08-12T07:03:23.522Z,38.87
2022-08-12T07:04:39.885Z,39.01
2022-08-12T07:05:21.857Z,39.26
2022-08-12T07:06:19.864Z,40.19
2022-08-12T07:07:19.835Z,39.92
2022-08-12T07:08:19.850Z,40.08
2022-08-12T07:10:01.284Z,39.48
2022-08-12T07:10:20.814Z,38.78
2022-08-12T07:11:19.801Z,39.17
2022-08-12T07:12:19.858Z,38.64
2022-08-12T07:13:19.799Z,38.50
2022-08-12T07:14:19.773Z,38.70
2022-08-12T07:15:19.764Z,39.60
2022-08-12T07:16:19.759Z,39.81
2022-08-12T07:17:19.752Z,41.17
2022-08-12T07:18:19.772Z,41.25
2022-08-12T07:19:19.744Z,41.06
2022-08-12T07:20:50.828Z,40.80
2022-08-12T07:21:21.730Z,40.84
2022-08-12T07:22:19.725Z,40.11
2022-08-12T07:23:19.722Z,39.62
2022-08-12T07:24:19.708Z,39.34
2022-08-12T07:25:19.685Z,39.42
2022-08-12T07:26:19.678Z,40.51
2022-08-12T07:27:19.668Z,39.65
2022-08-12T07:28:19.701Z,40.58
2022-08-12T07:29:19.645Z,41.02
2022-08-12T07:30:19.636Z,41.57
2022-08-12T07:31:19.623Z,41.87
2022-08-12T07:32:19.614Z,39.97
2022-08-12T07:33:19.626Z,41.75
2022-08-12T07:34:19.592Z,40.64
2022-08-12T07:35:19.612Z,37.56
2022-08-12T07:36:19.577Z,38.98
2022-08-12T07:37:19.571Z,39.46
2022-08-12T07:38:19.571Z,38.96
2022-08-12T07:39:20.572Z,39.87
2022-08-12T07:40:19.541Z,40.05
2022-08-12T07:41:19.537Z,38.27
2022-08-12T07:42:19.523Z,39.87
2022-08-12T07:43:19.553Z,37.20
2022-08-12T07:44:19.515Z,37.12
2022-08-12T07:45:19.492Z,37.81
2022-08-12T07:46:19.483Z,39.00
2022-08-12T07:47:51.369Z,39.00
2022-08-12T07:48:19.518Z,37.71
2022-08-12T07:49:19.459Z,38.32
2022-08-12T07:50:23.613Z,40.01
2022-08-12T07:51:25.324Z,42.25
2022-08-12T07:52:20.424Z,42.45
2022-08-12T07:53:19.422Z,39.37
2022-08-12T07:54:19.429Z,40.07
2022-08-12T07:55:19.404Z,40.52
2022-08-12T07:56:19.387Z,39.43
2022-08-12T07:57:19.387Z,37.95
2022-08-12T07:58:19.375Z,37.17
2022-08-12T07:59:19.379Z,39.06
2022-08-12T08:00:19.360Z,39.75
2022-08-12T08:01:19.369Z,39.28
2022-08-12T08:02:19.339Z,39.06
2022-08-12T08:03:19.326Z,37.49
2022-08-12T08:04:19.753Z,39.77
2022-08-12T08:05:19.309Z,38.07
2022-08-12T08:06:20.099Z,38.28
2022-08-12T08:07:19.288Z,38.58
2022-08-12T08:08:19.280Z,39.49
2022-08-12T08:09:19.290Z,40.09
2022-08-12T08:10:19.255Z,39.07
2022-08-12T08:11:19.249Z,39.17
2022-08-12T08:12:19.797Z,39.37
2022-08-12T08:13:19.232Z,39.59
2022-08-12T08:14:19.241Z,39.41
2022-08-12T08:15:19.210Z,40.70
2022-08-12T08:16:19.190Z,39.21
2022-08-12T08:17:19.188Z,39.49
2022-08-12T08:18:26.309Z,39.79
2022-08-12T08:19:21.205Z,39.00
2022-08-12T08:20:19.153Z,39.49
2022-08-12T08:21:19.146Z,38.52
2022-08-12T08:22:19.141Z,39.21
2022-08-12T08:23:20.124Z,39.92
2022-08-12T08:24:19.158Z,40.03
2022-08-12T08:25:20.413Z,39.81
2022-08-12T08:26:20.099Z,40.01
2022-08-12T08:27:19.092Z,39.83
2022-08-12T08:28:19.081Z,39.83
2022-08-12T08:29:19.069Z,40.30
2022-08-12T08:30:19.073Z,39.63
2022-08-12T08:31:19.056Z,39.41
2022-08-12T08:32:19.038Z,38.43
2022-08-12T08:33:24.456Z,38.42
2022-08-12T08:34:49.279Z,37.92
2022-08-12T08:35:21.022Z,38.32
2022-08-12T08:36:23.785Z,38.20
2022-08-12T08:37:19.993Z,38.28
2022-08-12T08:38:31.673Z,37.98
2022-08-12T08:39:19.992Z,39.28
2022-08-12T08:40:18.996Z,36.00
2022-08-12T08:42:14.186Z,36.90
2022-08-12T08:42:20.559Z,38.09
2022-08-12T08:43:19.952Z,37.88
2022-08-12T08:44:18.920Z,39.19
2022-08-12T08:45:18.928Z,38.09
2022-08-12T08:46:18.916Z,38.30
2022-08-12T08:47:18.890Z,37.62
2022-08-12T08:48:18.887Z,38.22
2022-08-12T08:49:18.877Z,37.23
2022-08-12T08:50:18.939Z,37.41
2022-08-12T08:51:18.869Z,37.52
2022-08-12T08:52:39.442Z,37.72
2022-08-12T08:53:19.838Z,38.12
2022-08-12T08:54:18.832Z,38.04
2022-08-12T08:55:25.551Z,39.21
2022-08-12T08:56:20.839Z,38.32
2022-08-12T08:57:19.020Z,39.01
2022-08-12T08:58:18.792Z,39.41
2022-08-12T08:59:18.773Z,38.20
2022-08-12T09:00:19.801Z,37.70
2022-08-12T09:01:18.832Z,36.02
2022-08-12T09:02:18.811Z,36.40
2022-08-12T09:05:09.238Z,35.92
2022-08-12T09:05:11.821Z,37.81
2022-08-12T09:05:24.997Z,36.41
2022-08-12T09:06:20.720Z,35.50
2022-08-12T09:07:51.466Z,36.51
2022-08-12T09:08:23.148Z,36.51
2022-08-12T09:09:20.701Z,37.60
2022-08-12T09:10:30.938Z,37.29
2022-08-12T09:12:06.821Z,36.10
2022-08-12T09:12:27.537Z,36.20
2022-08-12T09:13:23.480Z,35.50
2022-08-12T09:14:29.562Z,35.19
2022-08-12T09:15:19.625Z,34.01
2022-08-12T09:16:20.286Z,34.81
2022-08-12T09:17:21.408Z,34.52
2022-08-12T09:18:30.983Z,35.90
2022-08-12T09:20:19.576Z,34.71
2022-08-12T09:21:19.584Z,35.01
2022-08-12T09:22:20.520Z,34.69
2022-08-12T09:24:00.569Z,34.41
2022-08-12T09:24:20.056Z,35.50
2022-08-12T09:25:25.660Z,34.59
2022-08-12T09:26:19.545Z,34.40
2022-08-12T09:27:18.578Z,34.81
2022-08-12T09:28:18.670Z,34.30
2022-08-12T09:29:18.500Z,34.81
2022-08-12T09:30:18.539Z,34.50
2022-08-12T09:32:07.611Z,34.89
2022-08-12T09:32:55.985Z,34.52
2022-08-12T09:34:27.493Z,34.53
2022-08-12T09:34:31.063Z,34.03
2022-08-12T09:35:28.210Z,33.44
2022-08-12T09:36:30.916Z,33.73
2022-08-12T09:37:22.333Z,33.42
2022-08-12T09:38:28.230Z,33.12
2022-08-12T09:40:01.985Z,33.31
2022-08-12T09:41:01.529Z,34.30
2022-08-12T09:42:33.338Z,33.69
2022-08-12T09:42:43.050Z,33.09
2022-08-12T09:43:19.659Z,31.81
2022-08-12T09:44:39.026Z,33.21
2022-08-12T09:45:23.199Z,34.22
2022-08-12T09:46:21.921Z,34.71
2022-08-12T09:47:19.345Z,34.59
2022-08-12T09:48:19.829Z,33.80
2022-08-12T09:49:18.320Z,34.30
2022-08-12T09:50:20.543Z,34.50
2022-08-12T09:51:22.345Z,33.31
2022-08-12T09:52:18.294Z,34.10
2022-08-12T09:53:18.274Z,33.59
2022-08-12T09:54:32.685Z,34.46
2022-08-12T09:56:01.160Z,33.87
2022-08-12T09:56:59.778Z,34.46
2022-08-12T09:58:45.412Z,33.80
2022-08-12T09:58:57.479Z,34.10
2022-08-12T10:00:15.054Z,33.80
2022-08-12T10:00:28.144Z,35.09
2022-08-12T10:01:23.134Z,34.58
2022-08-12T10:02:43.405Z,34.78
2022-08-12T10:03:32.055Z,34.58
2022-08-12T10:04:20.339Z,34.58
2022-08-12T10:05:20.577Z,35.27
2022-08-12T10:06:26.435Z,34.95
2022-08-12T10:07:24.849Z,34.25
2022-08-12T10:08:19.134Z,33.75
2022-08-12T10:09:18.124Z,33.97
2022-08-12T10:10:24.449Z,35.65
2022-08-12T10:11:20.329Z,34.94
2022-08-12T10:12:31.377Z,34.25
2022-08-12T10:13:35.725Z,34.84
2022-08-12T10:14:19.080Z,34.45
2022-08-12T10:16:03.105Z,34.05
2022-08-12T10:16:22.649Z,34.34
2022-08-12T10:17:18.050Z,34.45
2022-08-12T10:18:18.053Z,34.25
2022-08-12T10:19:18.053Z,33.75
2022-08-12T10:20:18.015Z,33.78
2022-08-12T10:21:19.012Z,33.87
2022-08-12T10:22:36.810Z,33.97
2022-08-12T10:23:19.009Z,33.95
2022-08-12T10:24:20.086Z,33.06
2022-08-12T10:25:18.268Z,33.26
2022-08-12T10:26:37.468Z,33.95
2022-08-12T10:27:18.952Z,33.24
2022-08-12T10:28:24.864Z,33.34
2022-08-12T10:30:01.970Z,33.44
2022-08-12T10:30:40.843Z,33.34
2022-08-12T10:31:18.913Z,32.95
2022-08-12T10:32:20.728Z,33.13
2022-08-12T10:33:22.999Z,33.14
2022-08-12T10:34:25.853Z,33.23
2022-08-12T10:35:18.878Z,33.64
2022-08-12T10:36:17.870Z,33.24
2022-08-12T10:38:05.040Z,33.64
2022-08-12T10:38:37.521Z,33.23
2022-08-12T10:40:02.093Z,32.52
2022-08-12T10:40:22.899Z,31.94
2022-08-12T10:41:21.083Z,33.14
2022-08-12T10:42:18.384Z,32.32
2022-08-12T10:43:18.814Z,31.73
2022-08-12T10:44:17.824Z,32.59
2022-08-12T10:45:18.353Z,30.99
2022-08-12T10:46:17.803Z,31.29
2022-08-12T10:48:01.239Z,31.17
2022-08-12T10:48:21.555Z,31.47
2022-08-12T10:50:02.981Z,30.66
2022-08-12T10:50:28.359Z,31.54
2022-08-12T10:52:04.853Z,30.75
2022-08-12T10:52:34.877Z,30.04
2022-08-12T10:53:19.720Z,29.35
2022-08-12T10:54:17.694Z,30.37
2022-08-12T10:55:17.684Z,30.78
2022-08-12T10:56:17.674Z,29.69
2022-08-12T10:57:17.936Z,30.27
2022-08-12T10:58:27.967Z,29.68
2022-08-12T10:59:18.658Z,30.66
2022-08-12T11:00:30.547Z,29.89
2022-08-12T11:04:15.131Z,30.41
2022-08-12T11:04:22.957Z,29.89
2022-08-12T11:04:25.216Z,30.40
2022-08-12T11:04:35.393Z,30.11
2022-08-12T11:07:02.442Z,31.09
2022-08-12T11:07:06.337Z,31.01
2022-08-12T11:08:34.943Z,30.09
2022-08-12T11:08:36.035Z,30.88
2022-08-12T11:09:18.621Z,30.30
2022-08-12T11:10:18.927Z,31.10
2022-08-12T11:11:27.768Z,31.10
2022-08-12T11:12:57.037Z,31.47
2022-08-12T11:13:18.552Z,30.37
2022-08-12T11:14:48.086Z,29.17
2022-08-12T11:15:21.285Z,29.16
2022-08-12T11:16:21.562Z,29.85
2022-08-12T11:17:42.690Z,30.24
2022-08-12T11:18:19.072Z,28.85
2022-08-12T11:19:36.343Z,29.44
2022-08-12T11:20:17.539Z,30.13
2022-08-12T11:21:17.432Z,30.21
2022-08-12T11:22:18.225Z,29.85
2022-08-12T11:23:25.107Z,29.55
2022-08-12T11:24:30.632Z,28.88
2022-08-12T11:25:18.397Z,29.65
2022-08-12T11:26:17.385Z,29.27
2022-08-12T11:27:17.371Z,28.89
2022-08-12T11:28:17.369Z,29.78
2022-08-12T11:29:22.522Z,30.35
2022-08-12T11:30:31.210Z,29.94
2022-08-12T11:31:18.332Z,29.55
2022-08-12T11:32:17.322Z,29.82
2022-08-12T11:33:24.478Z,28.24
2022-08-12T11:34:53.313Z,29.23
2022-08-12T11:35:18.295Z,28.23
2022-08-12T11:36:17.263Z,29.06
2022-08-12T11:37:26.184Z,29.65
2022-08-12T11:38:20.354Z,30.93
2022-08-12T11:39:17.307Z,29.82
2022-08-12T11:41:17.213Z,27.43
2022-08-12T11:42:18.197Z,28.74
2022-08-12T11:43:20.276Z,28.44
2022-08-12T11:44:37.207Z,28.24
2022-08-12T11:45:18.180Z,28.12
2022-08-12T11:46:18.452Z,28.26
2022-08-12T11:47:17.165Z,28.99
2022-08-12T11:48:17.179Z,29.06
2022-08-12T11:49:26.778Z,28.65
2022-08-12T11:50:19.646Z,28.36
2022-08-12T11:51:17.114Z,28.95
2022-08-12T11:52:35.272Z,29.34
2022-08-12T11:53:58.598Z,28.93
2022-08-12T11:54:18.085Z,28.34
2022-08-12T11:55:17.092Z,29.03
2022-08-12T11:56:18.099Z,28.54
2022-08-12T11:58:42.266Z,27.67
2022-08-12T11:59:11.354Z,28.68
2022-08-12T12:02:02.691Z,28.45
2022-08-12T12:02:20.726Z,27.66
2022-08-12T12:03:18.008Z,27.66
2022-08-12T12:04:29.179Z,27.57
2022-08-12T12:05:18.097Z,28.36
2022-08-12T12:06:17.469Z,27.56
2022-08-12T12:07:16.969Z,27.17
2022-08-12T12:08:38.950Z,27.27
2022-08-12T12:09:17.951Z,27.27
2022-08-12T12:10:16.938Z,27.79
2022-08-12T12:11:16.945Z,28.47
2022-08-12T12:12:16.918Z,27.30
2022-08-12T12:14:05.346Z,28.17
2022-08-12T12:14:18.012Z,27.87
2022-08-12T12:15:16.894Z,27.86
2022-08-12T12:16:17.899Z,28.06
2022-08-12T12:17:16.876Z,27.30
2022-08-12T12:18:16.867Z,28.56
2022-08-12T12:19:19.148Z,28.36
2022-08-12T12:20:16.897Z,27.33
2022-08-12T12:21:16.855Z,27.71
2022-08-12T12:22:23.557Z,28.33
2022-08-12T12:23:29.258Z,28.12
2022-08-12T12:24:21.132Z,27.72
2022-08-12T12:25:16.805Z,26.67
2022-08-12T12:26:34.694Z,28.37
2022-08-12T12:27:19.360Z,28.64
2022-08-12T12:28:38.005Z,28.47
2022-08-12T12:30:18.042Z,28.77
2022-08-12T12:30:29.853Z,28.65
2022-08-12T12:32:10.390Z,28.16
2022-08-12T12:32:18.415Z,28.05
2022-08-12T12:33:18.077Z,27.95
2022-08-12T12:34:30.682Z,27.85
2022-08-12T12:36:06.115Z,28.85
2022-08-12T12:36:24.144Z,28.27
2022-08-12T12:37:17.700Z,28.44
2022-08-12T12:38:17.769Z,27.05
2022-08-12T12:39:16.735Z,28.45
2022-08-12T12:40:16.685Z,28.37
2022-08-12T12:41:17.238Z,28.36
2022-08-12T12:42:44.372Z,27.85
2022-08-12T12:43:17.642Z,28.34
2022-08-12T12:44:25.906Z,27.68
2022-08-12T12:45:19.417Z,27.50
2022-08-12T12:46:16.615Z,28.52
2022-08-12T12:47:28.629Z,29.21
2022-08-12T12:48:17.594Z,28.89
2022-08-12T12:49:16.588Z,28.37
2022-08-12T12:50:34.836Z,27.96
2022-08-12T12:51:48.247Z,28.14
2022-08-12T12:52:19.657Z,27.47
2022-08-12T12:54:06.263Z,27.67
2022-08-12T12:54:18.645Z,27.27
2022-08-12T12:55:16.529Z,28.59
2022-08-12T12:56:16.524Z,28.10